createdAt,value
2023-04-04T00:02:20.583Z,11.96
2023-04-04T00:05:24.377Z,11.99
2023-04-04T00:08:29.675Z,11.85
2023-04-04T00:11:33.993Z,11.89
2023-04-04T00:14:37.578Z,11.89
2023-04-04T00:17:41.352Z,11.86
2023-04-04T00:20:44.844Z,11.77
2023-04-04T00:23:49.785Z,11.81
2023-04-04T00:26:53.405Z,11.71
2023-04-04T00:29:57.021Z,11.84
2023-04-04T00:33:02.166Z,11.85
2023-04-04T00:36:06.324Z,12.10
2023-04-04T00:39:11.390Z,11.95
2023-04-04T00:42:15.138Z,11.81
2023-04-04T00:45:18.795Z,11.92
2023-04-04T00:48:24.535Z,11.87
2023-04-04T00:51:28.352Z,11.70
2023-04-04T00:54:33.347Z,11.82
2023-04-04T00:57:37.142Z,12.00
2023-04-04T01:00:41.428Z,12.10
2023-04-04T01:03:45.681Z,11.92
2023-04-04T01:06:50.018Z,11.89
2023-04-04T01:09:57.953Z,11.81
2023-04-04T01:13:02.163Z,11.71
2023-04-04T01:16:06.980Z,11.88
2023-04-04T01:19:15.913Z,11.87
2023-04-04T01:22:20.567Z,11.85
2023-04-04T01:25:32.206Z,11.54
2023-04-04T01:28:41.234Z,11.54
2023-04-04T01:31:57.710Z,11.75
2023-04-04T01:35:21.206Z,11.87
2023-04-04T01:38:32.054Z,11.77
2023-04-04T01:41:37.851Z,11.68
2023-04-04T01:44:42.108Z,11.79
2023-04-04T01:47:45.668Z,11.64
2023-04-04T01:50:54.064Z,11.84
2023-04-04T01:53:58.217Z,11.91
2023-04-04T01:57:03.505Z,11.75
2023-04-04T02:00:08.621Z,11.77
2023-04-04T02:03:21.004Z,11.79
2023-04-04T02:06:24.625Z,11.78
2023-04-04T02:09:28.584Z,11.83
2023-04-04T02:12:34.633Z,11.77
2023-04-04T02:15:38.228Z,11.80
2023-04-04T02:18:41.699Z,11.96
2023-04-04T02:21:45.574Z,11.94
2023-04-04T02:24:49.169Z,11.78
2023-04-04T02:27:54.123Z,11.76
2023-04-04T02:30:57.619Z,11.72
2023-04-04T02:34:01.190Z,12.01
2023-04-04T02:37:05.254Z,12.00
2023-04-04T02:40:10.749Z,11.90
2023-04-04T02:43:17.209Z,11.99
2023-04-04T02:46:22.357Z,12.02
2023-04-04T02:49:32.791Z,12.15
2023-04-04T02:52:36.957Z,11.98
2023-04-04T02:55:46.404Z,12.00
2023-04-04T02:58:51.953Z,11.93
2023-04-04T03:01:55.863Z,12.01
2023-04-04T03:05:00.238Z,11.87
2023-04-04T03:08:04.977Z,11.66
2023-04-04T03:11:08.690Z,11.65
2023-04-04T03:14:14.016Z,11.57
2023-04-04T03:17:18.502Z,11.60
2023-04-04T03:20:23.394Z,11.56
2023-04-04T03:23:27.015Z,11.65
2023-04-04T03:26:30.661Z,11.73
2023-04-04T03:29:35.771Z,11.71
2023-04-04T03:32:40.767Z,11.70
2023-04-04T03:35:44.541Z,11.50
2023-04-04T03:38:48.112Z,11.42
2023-04-04T03:41:51.930Z,11.45
2023-04-04T03:44:57.040Z,11.59
2023-04-04T03:48:07.647Z,11.45
2023-04-04T03:51:11.560Z,11.57
2023-04-04T03:54:16.019Z,11.61
2023-04-04T03:57:20.577Z,11.77
2023-04-04T04:00:27.264Z,11.74
2023-04-04T04:03:31.012Z,11.89
2023-04-04T04:06:34.696Z,11.75
2023-04-04T04:09:38.968Z,11.82
2023-04-04T04:12:43.414Z,11.73
2023-04-04T04:15:48.498Z,11.57
2023-04-04T04:18:57.075Z,11.86
2023-04-04T04:22:10.519Z,11.63
2023-04-04T04:25:14.408Z,11.76
2023-04-04T04:28:20.585Z,12.00
2023-04-04T04:31:27.011Z,11.93
2023-04-04T04:34:31.291Z,11.91
2023-04-04T04:37:36.732Z,12.06
2023-04-04T04:40:43.124Z,12.05
2023-04-04T04:43:56.661Z,11.95
2023-04-04T04:47:05.245Z,12.01
2023-04-04T04:50:09.750Z,12.33
2023-04-04T04:53:18.842Z,12.03
2023-04-04T04:56:24.160Z,12.20
2023-04-04T04:59:31.137Z,12.39
2023-04-04T05:02:38.441Z,12.26
2023-04-04T05:05:44.323Z,12.17
2023-04-04T05:08:50.518Z,12.06
2023-04-04T05:12:10.652Z,12.16
2023-04-04T05:15:18.549Z,12.00
2023-04-04T05:18:28.598Z,11.90
2023-04-04T05:21:33.351Z,11.86
2023-04-04T05:24:43.123Z,12.22
2023-04-04T05:27:51.721Z,12.15
2023-04-04T05:30:58.627Z,12.20
2023-04-04T05:34:08.578Z,12.40
2023-04-04T05:37:14.002Z,12.22
2023-04-04T05:40:22.645Z,12.22
2023-04-04T05:43:32.795Z,12.45
2023-04-04T05:46:42.370Z,12.27
2023-04-04T05:49:48.184Z,12.02
2023-04-04T05:52:57.402Z,11.89
2023-04-04T05:56:01.367Z,12.03
2023-04-04T05:59:08.231Z,11.87
2023-04-04T06:02:19.866Z,11.87
2023-04-04T06:05:30.597Z,12.04
2023-04-04T06:08:46.665Z,12.07
2023-04-04T06:11:56.598Z,12.26
2023-04-04T06:15:00.481Z,12.08
2023-04-04T06:18:05.877Z,12.31
2023-04-04T06:21:11.953Z,12.28
2023-04-04T06:24:16.717Z,12.29
2023-04-04T06:27:20.502Z,12.64
2023-04-04T06:30:24.912Z,12.77
2023-04-04T06:33:29.311Z,12.57
2023-04-04T06:36:34.510Z,12.68
2023-04-04T06:39:40.807Z,12.59
2023-04-04T06:42:52.407Z,12.44
2023-04-04T06:45:58.840Z,12.45
2023-04-04T06:49:02.553Z,12.24
2023-04-04T06:52:07.921Z,12.53
2023-04-04T06:55:13.382Z,12.21
2023-04-04T06:58:17.136Z,12.48
2023-04-04T07:01:21.029Z,12.60
2023-04-04T07:04:24.860Z,12.58
2023-04-04T07:07:31.070Z,12.76
2023-04-04T07:10:34.735Z,12.60
2023-04-04T07:13:39.016Z,12.83
2023-04-04T07:16:42.715Z,12.83
2023-04-04T07:19:46.602Z,12.99
2023-04-04T07:22:51.762Z,12.81
2023-04-04T07:25:55.581Z,13.11
2023-04-04T07:28:59.321Z,13.17
2023-04-04T07:32:03.087Z,13.20
2023-04-04T07:35:08.335Z,12.89
2023-04-04T07:38:13.620Z,13.19
2023-04-04T07:41:17.670Z,13.08
2023-04-04T07:44:21.408Z,13.07
2023-04-04T07:47:25.203Z,13.28
2023-04-04T07:50:28.906Z,13.12
2023-04-04T07:53:34.178Z,12.99
2023-04-04T07:56:37.905Z,12.95
2023-04-04T07:59:41.711Z,12.96
2023-04-04T08:02:46.670Z,12.96
2023-04-04T08:05:50.421Z,13.16
2023-04-04T08:08:55.687Z,13.34
2023-04-04T08:11:59.577Z,13.69
2023-04-04T08:15:03.437Z,13.66
2023-04-04T08:18:07.711Z,13.66
2023-04-04T08:21:11.495Z,13.76
2023-04-04T08:24:16.758Z,13.67
2023-04-04T08:27:20.697Z,13.59
2023-04-04T08:30:24.425Z,13.65
2023-04-04T08:33:37.190Z,13.53
2023-04-04T08:36:48.203Z,13.62
2023-04-04T08:39:53.365Z,13.53
2023-04-04T08:42:58.983Z,13.54
2023-04-04T08:46:05.567Z,13.56
2023-04-04T08:49:09.469Z,13.61
2023-04-04T08:52:14.294Z,13.92
2023-04-04T08:55:20.424Z,13.83
2023-04-04T08:58:24.474Z,14.01
2023-04-04T09:01:30.040Z,13.91
2023-04-04T09:04:33.930Z,13.96
2023-04-04T09:07:39.348Z,13.96
2023-04-04T09:10:45.797Z,13.74
2023-04-04T09:13:52.439Z,13.73
2023-04-04T09:16:56.246Z,13.82
2023-04-04T09:20:04.312Z,13.84
2023-04-04T09:23:09.287Z,13.96
2023-04-04T09:26:14.818Z,13.72
2023-04-04T09:29:20.592Z,13.61
2023-04-04T09:32:26.248Z,13.83
2023-04-04T09:35:30.108Z,13.92
2023-04-04T09:38:34.074Z,14.01
2023-04-04T09:41:41.416Z,14.11
2023-04-04T09:44:46.195Z,14.38
2023-04-04T09:47:50.042Z,14.49
2023-04-04T09:50:53.771Z,14.41
2023-04-04T09:54:00.220Z,14.38
2023-04-04T09:57:06.674Z,14.26
2023-04-04T10:00:11.576Z,14.21
2023-04-04T10:03:18.098Z,14.16
2023-04-04T10:06:23.046Z,14.44
2023-04-04T10:09:27.202Z,14.36
2023-04-04T10:12:33.472Z,14.36
2023-04-04T10:15:38.707Z,14.44
2023-04-04T10:18:42.526Z,14.61
2023-04-04T10:21:47.757Z,14.59
2023-04-04T10:24:53.903Z,14.68
2023-04-04T10:27:59.010Z,14.82
2023-04-04T10:31:11.271Z,14.79
2023-04-04T10:34:22.221Z,15.08
2023-04-04T10:37:28.563Z,15.28
2023-04-04T10:40:36.109Z,15.75
2023-04-04T10:43:43.177Z,16.53
2023-04-04T10:46:52.348Z,16.95
2023-04-04T10:49:57.581Z,17.03
2023-04-04T10:53:03.857Z,17.20
2023-04-04T10:56:09.215Z,17.70
2023-04-04T10:59:18.632Z,18.41
2023-04-04T11:02:46.237Z,18.79
2023-04-04T11:05:51.782Z,19.02
2023-04-04T11:08:56.443Z,18.92
2023-04-04T11:12:09.890Z,19.12
2023-04-04T11:15:16.626Z,19.60
2023-04-04T11:21:34.038Z,20.09
2023-04-04T11:24:44.888Z,19.81
2023-04-04T11:27:48.995Z,20.17
2023-04-04T11:31:30.023Z,20.19
2023-04-04T11:34:34.483Z,20.08
2023-04-04T11:37:45.405Z,19.40
2023-04-04T11:40:56.471Z,19.57
2023-04-04T11:44:10.220Z,19.31
2023-04-04T11:47:15.513Z,18.64
2023-04-04T11:50:21.113Z,18.44
2023-04-04T11:53:24.871Z,18.11
2023-04-04T11:56:28.584Z,18.07
2023-04-04T11:59:32.356Z,17.71
2023-04-04T12:02:38.189Z,17.55
2023-04-04T12:05:44.268Z,17.55
2023-04-04T12:08:48.401Z,17.42
2023-04-04T12:11:52.241Z,17.27
2023-04-04T12:15:06.261Z,17.15
2023-04-04T12:18:24.643Z,17.05
2023-04-04T12:21:28.615Z,16.79
2023-04-04T12:24:32.732Z,16.78
2023-04-04T12:27:37.251Z,16.72
2023-04-04T12:30:41.161Z,16.72
2023-04-04T12:33:46.476Z,16.58
2023-04-04T12:36:50.710Z,16.36
2023-04-04T12:39:55.687Z,16.08
2023-04-04T12:43:00.784Z,16.02
2023-04-04T12:46:09.309Z,15.77
2023-04-04T12:49:15.869Z,14.88
2023-04-04T12:52:22.604Z,14.71
2023-04-04T12:55:26.307Z,14.63
2023-04-04T12:58:31.439Z,14.11
2023-04-04T13:01:35.281Z,14.13
2023-04-04T13:04:40.787Z,13.91
2023-04-04T13:07:44.743Z,13.85
2023-04-04T13:10:59.403Z,13.97
2023-04-04T13:14:04.580Z,13.43
2023-04-04T13:17:09.769Z,13.23
2023-04-04T13:20:17.091Z,12.58
2023-04-04T13:23:21.345Z,12.85
2023-04-04T13:26:25.301Z,12.95
2023-04-04T13:29:29.022Z,12.78
2023-04-04T13:32:32.791Z,13.04
2023-04-04T13:35:38.384Z,13.12
2023-04-04T13:38:42.423Z,13.02
2023-04-04T13:41:46.060Z,12.76
2023-04-04T13:44:49.743Z,12.61
2023-04-04T13:47:53.449Z,12.56
2023-04-04T13:50:58.623Z,12.26
2023-04-04T13:54:02.201Z,12.30
2023-04-04T13:57:05.889Z,12.17
2023-04-04T14:00:10.932Z,12.34
2023-04-04T14:03:14.777Z,12.01
2023-04-04T14:06:20.145Z,12.18
2023-04-04T14:09:24.334Z,11.97
2023-04-04T14:12:28.234Z,12.04
2023-04-04T14:15:33.284Z,11.96
2023-04-04T14:18:37.093Z,11.84
2023-04-04T14:21:42.214Z,11.79
2023-04-04T14:24:45.864Z,12.01
2023-04-04T14:27:49.582Z,11.95
2023-04-04T14:30:53.290Z,11.85
2023-04-04T14:33:56.936Z,11.86
2023-04-04T14:37:02.399Z,11.85
2023-04-04T14:40:07.694Z,11.77
2023-04-04T14:43:11.401Z,11.81
2023-04-04T14:46:15.176Z,11.82
2023-04-04T14:49:19.080Z,11.91
2023-04-04T14:52:24.162Z,12.01
2023-04-04T14:55:28.085Z,11.81
2023-04-04T14:58:31.731Z,11.61
2023-04-04T15:01:35.509Z,11.62
2023-04-04T15:04:39.335Z,11.75
2023-04-04T15:07:46.013Z,11.92
2023-04-04T15:10:49.637Z,11.55
2023-04-04T15:13:53.337Z,11.70
2023-04-04T15:16:57.133Z,11.67
2023-04-04T15:20:01.108Z,11.88
2023-04-04T15:23:06.364Z,11.99
2023-04-04T15:26:09.971Z,11.87
2023-04-04T15:29:14.951Z,11.87
2023-04-04T15:32:18.682Z,11.99
2023-04-04T15:35:22.715Z,12.03
2023-04-04T15:38:27.804Z,11.76
2023-04-04T15:41:31.631Z,11.58
2023-04-04T15:44:35.285Z,11.61
2023-04-04T15:47:38.979Z,11.42
2023-04-04T15:50:43.136Z,11.49
2023-04-04T15:53:48.423Z,11.50
2023-04-04T15:56:52.160Z,11.45
2023-04-04T15:59:56.061Z,11.13
2023-04-04T16:03:00.087Z,11.28
2023-04-04T16:06:04.175Z,11.14
2023-04-04T16:09:09.812Z,11.21
2023-04-04T16:12:13.453Z,10.90
2023-04-04T16:15:17.618Z,10.96
2023-04-04T16:18:21.262Z,10.83
2023-04-04T16:21:24.990Z,10.78
2023-04-04T16:24:30.118Z,10.58
2023-04-04T16:27:34.338Z,10.63
2023-04-04T16:30:38.755Z,10.50
2023-04-04T16:33:43.019Z,10.56
2023-04-04T16:36:46.761Z,10.46
2023-04-04T16:39:52.390Z,10.52
2023-04-04T16:42:56.034Z,10.31
2023-04-04T16:45:59.853Z,10.44
2023-04-04T16:49:03.567Z,10.40
2023-04-04T16:52:07.733Z,10.43
2023-04-04T16:55:12.922Z,10.33
2023-04-04T16:58:16.601Z,9.96
2023-04-04T17:01:23.088Z,10.24
2023-04-04T17:04:27.121Z,10.07
2023-04-04T17:07:31.078Z,10.30
2023-04-04T17:10:40.685Z,10.36
2023-04-04T17:13:44.574Z,10.52
2023-04-04T17:16:48.310Z,10.14
2023-04-04T17:19:52.277Z,10.12
2023-04-04T17:22:55.980Z,10.25
2023-04-04T17:26:01.180Z,9.92
2023-04-04T17:29:04.882Z,9.95
2023-04-04T17:32:08.694Z,10.16
2023-04-04T17:35:12.458Z,10.14
2023-04-04T17:38:16.220Z,9.72
2023-04-04T17:41:21.550Z,9.67
2023-04-04T17:44:25.251Z,9.57
2023-04-04T17:47:28.993Z,9.67
2023-04-04T17:50:32.852Z,9.58
2023-04-04T17:53:36.775Z,9.48
2023-04-04T17:56:43.845Z,9.69
2023-04-04T17:59:47.691Z,9.78
2023-04-04T18:02:51.607Z,9.70
2023-04-04T18:05:55.501Z,9.90
2023-04-04T18:08:59.308Z,9.78
2023-04-04T18:12:04.636Z,9.84
2023-04-04T18:15:09.646Z,9.99
2023-04-04T18:18:13.484Z,9.71
2023-04-04T18:21:17.347Z,9.75
2023-04-04T18:24:21.405Z,9.82
2023-04-04T18:27:26.534Z,9.31
2023-04-04T18:30:30.492Z,9.70
2023-04-04T18:33:35.298Z,9.88
2023-04-04T18:36:40.013Z,10.05
2023-04-04T18:39:43.782Z,9.76
2023-04-04T18:42:49.607Z,9.89
2023-04-04T18:45:55.128Z,9.94
2023-04-04T18:48:59.069Z,9.57
2023-04-04T18:52:02.851Z,9.62
2023-04-04T18:55:07.607Z,9.75
2023-04-04T18:58:12.758Z,9.40
2023-04-04T19:01:17.085Z,9.64
2023-04-04T19:04:22.363Z,9.52
2023-04-04T19:07:28.055Z,9.56
2023-04-04T19:10:32.084Z,9.30
2023-04-04T19:13:37.272Z,9.09
2023-04-04T19:16:41.518Z,9.25
2023-04-04T19:19:45.223Z,9.34
2023-04-04T19:22:48.915Z,9.05
2023-04-04T19:25:52.720Z,9.45
2023-04-04T19:28:57.764Z,9.32
2023-04-04T19:32:03.862Z,9.10
2023-04-04T19:35:24.320Z,9.04
2023-04-04T19:38:29.605Z,9.09
2023-04-04T19:41:36.333Z,9.19
2023-04-04T19:44:42.658Z,9.18
2023-04-04T19:47:46.392Z,8.98
2023-04-04T19:50:50.152Z,8.92
2023-04-04T19:53:56.263Z,9.13
2023-04-04T19:57:03.834Z,9.16
2023-04-04T20:00:14.138Z,9.08
2023-04-04T20:03:30.620Z,8.92
2023-04-04T20:06:34.382Z,8.76
2023-04-04T20:09:40.288Z,8.95
2023-04-04T20:12:44.091Z,9.04
2023-04-04T20:16:04.005Z,9.09
2023-04-04T20:19:08.454Z,8.88
2023-04-04T20:22:12.340Z,8.79
2023-04-04T20:25:41.646Z,8.96
2023-04-04T20:28:47.484Z,9.02
2023-04-04T20:31:54.973Z,8.92
2023-04-04T20:34:58.846Z,8.78
2023-04-04T20:38:02.530Z,8.83
2023-04-04T20:41:15.434Z,8.95
2023-04-04T20:44:21.006Z,8.98
2023-04-04T20:47:43.591Z,8.85
2023-04-04T20:50:47.680Z,8.99
2023-04-04T20:53:51.508Z,8.91
2023-04-04T20:56:56.764Z,8.78
2023-04-04T21:00:00.623Z,8.97
2023-04-04T21:03:12.317Z,9.03
2023-04-04T21:06:17.025Z,8.96
2023-04-04T21:09:20.988Z,9.21
2023-04-04T21:12:24.625Z,9.02
2023-04-04T21:15:30.040Z,9.08
2023-04-04T21:18:35.414Z,9.10
2023-04-04T21:21:39.186Z,8.97
2023-04-04T21:24:42.788Z,8.89
2023-04-04T21:27:53.792Z,8.96
2023-04-04T21:30:57.871Z,8.87
2023-04-04T21:34:09.429Z,8.70
2023-04-04T21:37:15.509Z,8.86
2023-04-04T21:40:20.187Z,8.79
2023-04-04T21:43:23.910Z,8.93
2023-04-04T21:46:29.055Z,8.71
2023-04-04T21:49:34.490Z,8.93
2023-04-04T21:52:38.181Z,8.94
2023-04-04T21:55:41.915Z,8.90
2023-04-04T21:58:45.707Z,8.68
2023-04-04T22:01:49.546Z,8.85
2023-04-04T22:04:54.793Z,8.63
2023-04-04T22:07:58.828Z,8.71
2023-04-04T22:11:03.386Z,8.71
2023-04-04T22:14:07.654Z,8.71
2023-04-04T22:17:23.928Z,8.69
2023-04-04T22:20:29.638Z,8.79
2023-04-04T22:23:35.884Z,8.61
2023-04-04T22:26:42.027Z,8.75
2023-04-04T22:29:45.888Z,8.72
2023-04-04T22:32:49.630Z,8.60
2023-04-04T22:35:54.874Z,8.62
2023-04-04T22:38:58.693Z,8.73
2023-04-04T22:42:02.532Z,8.57
2023-04-04T22:45:07.036Z,8.71
2023-04-04T22:48:10.711Z,8.75
2023-04-04T22:51:16.653Z,8.36
2023-04-04T22:54:21.051Z,8.57
2023-04-04T22:57:24.824Z,8.47
2023-04-04T23:00:28.508Z,8.51
2023-04-04T23:03:32.553Z,8.52
2023-04-04T23:06:38.763Z,8.57
2023-04-04T23:09:42.553Z,8.53
2023-04-04T23:12:47.919Z,8.53
2023-04-04T23:15:51.677Z,8.59
2023-04-04T23:18:55.326Z,8.56
2023-04-04T23:22:01.044Z,8.62
2023-04-04T23:25:05.047Z,8.50
2023-04-04T23:28:08.732Z,8.32
2023-04-04T23:31:12.488Z,8.27
2023-04-04T23:34:16.306Z,8.52
2023-04-04T23:37:22.434Z,8.45
2023-04-04T23:40:26.055Z,8.61
2023-04-04T23:43:29.903Z,8.68
2023-04-04T23:46:35.487Z,8.83
2023-04-04T23:49:39.303Z,8.71
2023-04-04T23:52:44.309Z,8.62
2023-04-04T23:55:48.309Z,8.59
2023-04-04T23:58:51.996Z,8.59
